Time;durP1;ratioP1;P1;durP2;ratioP2;P2;SDS_P1;SDS_P2;PMS_P1;PMS_P2;Temp;Humidity;BMP_temperature;BMP_pressure;BME280_temperature;BME280_humidity;BME280_pressure;Samples;Min_cycle;Max_cycle;Signal;HPM_P1;HPM_P2
2023/08/06 00:00:08;;;;;;;7.70;3.88;;;15.10;99.90;;;;;;5015836;28;20476;-36
2023/08/06 00:02:34;;;;;;;6.55;4.35;;;15.10;99.90;;;;;;5003272;28;20080;-36
2023/08/06 00:05:00;;;;;;;6.53;4.03;;;15.10;99.90;;;;;;5009774;28;20077;-36
2023/08/06 00:07:25;;;;;;;6.18;3.80;;;15.10;99.90;;;;;;5004328;28;20137;-36
2023/08/06 00:09:51;;;;;;;6.97;4.38;;;15.10;99.90;;;;;;5007775;28;20103;-36
2023/08/06 00:12:16;;;;;;;7.43;3.78;;;15.10;99.90;;;;;;5008436;28;20100;-36
2023/08/06 00:14:42;;;;;;;7.25;4.20;;;15.10;99.90;;;;;;4983866;28;20050;-36
2023/08/06 00:17:08;;;;;;;6.03;3.53;;;15.10;99.90;;;;;;5006432;28;20049;-36
2023/08/06 00:19:34;;;;;;;6.03;4.10;;;15.10;99.90;;;;;;5001311;28;20050;-36
2023/08/06 00:21:59;;;;;;;5.55;3.60;;;15.10;99.90;;;;;;5004070;28;20073;-36
2023/08/06 00:24:25;;;;;;;6.82;4.20;;;15.10;99.90;;;;;;5003015;28;20041;-36
2023/08/06 00:26:50;;;;;;;6.22;4.10;;;15.10;99.90;;;;;;5008801;28;20376;-36
2023/08/06 00:29:16;;;;;;;7.47;3.92;;;15.10;99.90;;;;;;5007211;28;20529;-36
2023/08/06 00:31:42;;;;;;;6.30;4.10;;;15.10;99.90;;;;;;5016627;28;20470;-36
2023/08/06 00:34:07;;;;;;;6.25;4.20;;;15.00;99.90;;;;;;5009557;28;20495;-36
2023/08/06 00:36:33;;;;;;;6.13;3.97;;;15.10;99.90;;;;;;5006689;28;20111;-36
2023/08/06 00:38:59;;;;;;;6.00;4.28;;;15.10;99.90;;;;;;5005752;28;20073;-36
2023/08/06 00:41:24;;;;;;;6.80;4.22;;;15.10;99.90;;;;;;5009221;28;20057;-36
2023/08/06 00:43:50;;;;;;;5.80;3.97;;;15.00;99.90;;;;;;5006446;28;20108;-36
2023/08/06 00:46:16;;;;;;;6.30;3.53;;;15.10;99.90;;;;;;5009755;28;20119;-36
2023/08/06 00:48:42;;;;;;;5.68;3.38;;;15.00;99.90;;;;;;4973288;28;20140;-36
2023/08/06 00:51:11;;;;;;;8.82;4.55;;;15.00;99.90;;;;;;5010711;28;20077;-36
2023/08/06 00:53:38;;;;;;;6.50;4.10;;;15.00;99.90;;;;;;5010287;28;20050;-36
2023/08/06 00:56:04;;;;;;;6.75;4.53;;;15.00;99.90;;;;;;5005430;28;20057;-36
2023/08/06 00:58:30;;;;;;;6.85;4.03;;;15.00;99.90;;;;;;5008045;28;20061;-36
2023/08/06 01:00:56;;;;;;;7.35;4.15;;;15.00;99.90;;;;;;5007062;28;20046;-36
2023/08/06 01:03:21;;;;;;;7.53;3.92;;;15.00;99.90;;;;;;5009699;28;20462;-36
2023/08/06 01:05:47;;;;;;;7.15;3.90;;;14.90;99.90;;;;;;5004836;28;20135;-36
2023/08/06 01:08:20;;;;;;;7.25;4.38;;;14.90;99.90;;;;;;5009953;28;20126;-36
2023/08/06 01:11:11;;;;;;;6.88;4.30;;;14.90;99.90;;;;;;5010490;28;20505;-36
2023/08/06 01:13:47;;;;;;;5.25;3.55;;;14.90;99.90;;;;;;5007365;28;20050;-36
2023/08/06 01:16:17;;;;;;;6.20;4.30;;;14.90;99.90;;;;;;5008053;28;20507;-36
2023/08/06 01:18:46;;;;;;;9.65;4.93;;;14.90;99.90;;;;;;5010674;28;20046;-36
2023/08/06 01:21:17;;;;;;;7.65;4.28;;;14.90;99.90;;;;;;5008472;28;20053;-36
2023/08/06 01:23:44;;;;;;;5.97;4.13;;;14.90;99.90;;;;;;5006947;28;20049;-36
2023/08/06 01:27:02;;;;;;;5.53;3.95;;;14.90;99.90;;;;;;5006001;28;20480;-36
2023/08/06 01:29:39;;;;;;;5.93;4.40;;;14.80;99.90;;;;;;4988872;28;20512;-36
2023/08/06 01:32:06;;;;;;;7.43;4.57;;;14.80;99.90;;;;;;4989958;28;20076;-36
2023/08/06 01:34:33;;;;;;;8.32;5.05;;;14.80;99.90;;;;;;4999591;28;20153;-36
2023/08/06 01:37:00;;;;;;;5.95;3.80;;;14.80;99.90;;;;;;5007321;28;20159;-36
2023/08/06 01:39:26;;;;;;;7.88;3.85;;;14.80;99.90;;;;;;5004756;28;20042;-36
2023/08/06 01:41:52;;;;;;;6.43;4.35;;;14.80;99.90;;;;;;5007924;28;20095;-36
2023/08/06 01:44:18;;;;;;;7.03;4.00;;;14.70;99.90;;;;;;5008099;28;20506;-36
2023/08/06 01:46:44;;;;;;;7.15;4.10;;;14.70;99.90;;;;;;5006391;28;20645;-36
2023/08/06 01:49:09;;;;;;;4.97;3.55;;;14.70;99.90;;;;;;5009756;28;20046;-36
2023/08/06 01:51:35;;;;;;;8.48;4.55;;;14.70;99.90;;;;;;5009911;28;20056;-36
2023/08/06 01:54:01;;;;;;;7.07;4.50;;;14.60;99.90;;;;;;5007138;28;20491;-36
2023/08/06 01:56:26;;;;;;;7.57;4.40;;;14.60;99.90;;;;;;5006826;28;20053;-36
2023/08/06 01:58:52;;;;;;;7.18;4.63;;;14.60;99.90;;;;;;4996330;28;20209;-36
2023/08/06 02:01:18;;;;;;;7.80;4.40;;;14.60;99.90;;;;;;5009132;28;20559;-36
2023/08/06 02:03:43;;;;;;;7.63;4.00;;;14.60;99.90;;;;;;5004862;28;20049;-36
2023/08/06 02:06:09;;;;;;;8.93;5.25;;;14.60;99.90;;;;;;5007263;28;20054;-36
2023/08/06 02:08:35;;;;;;;10.02;4.28;;;14.60;99.90;;;;;;5004683;28;20060;-36
2023/08/06 02:11:01;;;;;;;7.75;4.63;;;14.60;99.90;;;;;;5013521;28;20112;-36
2023/08/06 02:13:27;;;;;;;9.63;4.40;;;14.60;99.90;;;;;;5006455;28;20100;-36
2023/08/06 02:15:53;;;;;;;5.53;4.07;;;14.60;99.90;;;;;;5002714;28;20513;-36
2023/08/06 02:18:18;;;;;;;7.05;4.63;;;14.60;99.90;;;;;;5006795;28;20125;-36
2023/08/06 02:20:58;;;;;;;6.30;4.22;;;14.60;99.90;;;;;;5004538;28;20526;-36
2023/08/06 02:23:24;;;;;;;6.70;4.40;;;14.60;99.90;;;;;;5004096;28;20049;-36
2023/08/06 02:26:01;;;;;;;7.03;4.65;;;14.60;99.90;;;;;;5007997;28;20050;-36
2023/08/06 02:28:27;;;;;;;6.65;4.63;;;14.60;99.90;;;;;;5003870;28;20427;-36
2023/08/06 02:30:52;;;;;;;7.22;5.07;;;14.60;99.90;;;;;;5005939;28;20057;-36
2023/08/06 02:33:18;;;;;;;6.10;4.10;;;14.50;99.90;;;;;;5005352;28;20054;-36
2023/08/06 02:35:44;;;;;;;7.63;4.53;;;14.50;99.90;;;;;;5002582;28;20042;-36
2023/08/06 02:38:09;;;;;;;6.40;3.92;;;14.50;99.90;;;;;;5005523;28;20051;-36
2023/08/06 02:40:35;;;;;;;7.82;3.85;;;14.50;99.90;;;;;;5006574;28;20355;-36
2023/08/06 02:43:01;;;;;;;6.82;4.18;;;14.60;99.90;;;;;;5008506;28;20411;-36
2023/08/06 02:45:26;;;;;;;9.20;4.10;;;14.50;99.90;;;;;;5011310;28;20050;-36
2023/08/06 02:47:52;;;;;;;6.57;4.18;;;14.60;99.90;;;;;;5007451;28;20470;-36
2023/08/06 02:50:18;;;;;;;7.22;4.57;;;14.60;99.90;;;;;;5004902;28;20049;-36
2023/08/06 02:52:43;;;;;;;10.73;4.65;;;14.60;99.90;;;;;;5009305;28;20054;-36
2023/08/06 02:55:10;;;;;;;8.63;5.55;;;14.60;99.90;;;;;;5007264;28;20057;-36
2023/08/06 02:57:35;;;;;;;7.18;4.82;;;14.60;99.90;;;;;;5010653;28;20088;-36
2023/08/06 03:00:01;;;;;;;7.90;5.28;;;14.60;99.90;;;;;;5017325;28;20069;-36
2023/08/06 03:02:27;;;;;;;8.32;4.82;;;14.60;99.90;;;;;;5009835;28;20137;-34
2023/08/06 03:04:52;;;;;;;7.00;4.40;;;14.60;99.90;;;;;;5009000;28;20058;-35
2023/08/06 03:07:18;;;;;;;9.65;5.20;;;14.60;99.90;;;;;;5011166;28;20046;-35
2023/08/06 03:09:44;;;;;;;9.90;4.78;;;14.60;99.90;;;;;;5008929;28;20057;-35
2023/08/06 03:12:09;;;;;;;8.32;4.88;;;14.60;99.90;;;;;;5004748;28;20054;-35
2023/08/06 03:14:35;;;;;;;6.13;4.20;;;14.60;99.90;;;;;;5012847;28;20495;-35
2023/08/06 03:17:00;;;;;;;8.13;4.88;;;14.60;99.90;;;;;;5010833;28;20041;-35
2023/08/06 03:19:26;;;;;;;10.68;4.57;;;14.60;99.90;;;;;;5007526;28;20050;-35
2023/08/06 03:21:52;;;;;;;10.07;5.20;;;14.60;99.90;;;;;;5015099;28;20049;-35
2023/08/06 03:24:17;;;;;;;7.82;4.80;;;14.60;99.90;;;;;;5004742;28;20058;-35
2023/08/06 03:26:43;;;;;;;6.80;4.38;;;14.60;99.90;;;;;;5010855;28;20069;-35
2023/08/06 03:29:09;;;;;;;8.18;4.95;;;14.60;99.90;;;;;;5005623;28;20136;-36
2023/08/06 03:31:34;;;;;;;7.82;5.40;;;14.50;99.90;;;;;;5005822;28;20049;-35
2023/08/06 03:34:00;;;;;;;6.40;4.85;;;14.50;99.90;;;;;;5011591;28;20679;-35
2023/08/06 03:36:26;;;;;;;6.97;4.65;;;14.50;99.90;;;;;;5013016;28;20474;-35
2023/08/06 03:38:51;;;;;;;8.38;5.28;;;14.50;99.90;;;;;;5010682;28;20190;-35
2023/08/06 03:41:17;;;;;;;6.55;4.55;;;14.50;99.90;;;;;;5006824;28;20072;-35
2023/08/06 03:43:43;;;;;;;7.03;5.07;;;14.50;99.90;;;;;;5003842;28;20557;-35
2023/08/06 03:46:08;;;;;;;6.97;4.97;;;14.50;99.90;;;;;;5013852;28;20050;-35
2023/08/06 03:48:34;;;;;;;6.70;4.10;;;14.50;99.90;;;;;;5006428;28;20056;-35
2023/08/06 03:51:01;;;;;;;7.47;5.00;;;14.50;99.90;;;;;;5012197;28;20049;-35
2023/08/06 03:53:27;;;;;;;8.75;4.43;;;14.50;99.90;;;;;;5008953;28;20054;-35
2023/08/06 03:55:53;;;;;;;7.63;4.85;;;14.60;99.90;;;;;;5008929;28;20149;-35
2023/08/06 03:58:18;;;;;;;7.32;4.95;;;14.60;99.90;;;;;;5008879;28;20103;-35
2023/08/06 04:00:44;;;;;;;7.97;4.43;;;14.60;99.90;;;;;;5006565;28;20050;-35
2023/08/06 04:03:09;;;;;;;7.97;5.72;;;14.60;99.90;;;;;;5012147;28;20557;-36
2023/08/06 04:05:35;;;;;;;7.30;4.35;;;14.60;99.90;;;;;;5009106;28;20236;-35
2023/08/06 04:08:01;;;;;;;6.78;4.03;;;14.60;99.90;;;;;;5012590;28;20146;-35
2023/08/06 04:10:27;;;;;;;6.43;4.50;;;14.60;99.90;;;;;;5010457;28;20049;-35
2023/08/06 04:12:53;;;;;;;5.70;3.95;;;14.60;99.90;;;;;;4998798;28;20050;-35
2023/08/06 04:15:18;;;;;;;8.82;4.43;;;14.60;99.90;;;;;;5003943;28;20049;-35
2023/08/06 04:17:44;;;;;;;7.65;4.47;;;14.60;99.90;;;;;;5007264;28;20050;-35
2023/08/06 04:20:10;;;;;;;6.85;4.70;;;14.70;99.90;;;;;;5003813;28;20057;-35
2023/08/06 04:22:35;;;;;;;6.57;4.10;;;14.60;99.90;;;;;;5000704;28;21030;-35
2023/08/06 04:25:01;;;;;;;8.68;4.40;;;14.60;99.90;;;;;;5003391;28;20054;-35
2023/08/06 04:27:27;;;;;;;6.32;4.00;;;14.70;99.90;;;;;;4999422;28;20046;-35
2023/08/06 04:29:53;;;;;;;7.18;4.63;;;14.60;99.90;;;;;;5002308;28;20050;-35
2023/08/06 04:32:19;;;;;;;7.72;4.45;;;14.60;99.90;;;;;;4999644;28;20714;-35
2023/08/06 04:34:45;;;;;;;6.65;4.03;;;14.60;99.90;;;;;;5002041;28;20057;-35
2023/08/06 04:37:10;;;;;;;7.72;4.40;;;14.60;99.90;;;;;;5006599;28;20057;-35
2023/08/06 04:39:36;;;;;;;6.70;3.83;;;14.70;99.90;;;;;;4998971;28;20085;-35
2023/08/06 04:42:02;;;;;;;5.68;3.65;;;14.70;99.90;;;;;;5004232;28;20050;-36
2023/08/06 04:44:27;;;;;;;6.28;3.85;;;14.70;99.90;;;;;;5004152;28;20069;-35
2023/08/06 04:46:53;;;;;;;7.63;4.38;;;14.70;99.90;;;;;;5008266;28;20041;-35
2023/08/06 04:49:21;;;;;;;6.57;4.30;;;14.70;99.90;;;;;;5007266;28;20046;-35
2023/08/06 04:51:46;;;;;;;6.28;3.85;;;14.70;99.90;;;;;;5004840;28;20423;-35
2023/08/06 04:54:12;;;;;;;8.30;3.75;;;14.70;99.90;;;;;;5002253;28;20132;-35
2023/08/06 04:56:38;;;;;;;8.13;4.10;;;14.70;99.90;;;;;;5004853;28;20053;-35
2023/08/06 04:59:03;;;;;;;6.50;4.15;;;14.70;99.90;;;;;;5007915;28;20142;-35
2023/08/06 05:01:29;;;;;;;6.45;3.80;;;14.80;99.90;;;;;;5002953;28;20136;-35
2023/08/06 05:03:55;;;;;;;6.40;3.95;;;14.70;99.90;;;;;;4989156;28;20077;-35
2023/08/06 05:06:21;;;;;;;12.02;4.80;;;14.80;99.90;;;;;;5003470;28;20057;-35
2023/08/06 05:08:46;;;;;;;7.90;4.40;;;14.80;99.90;;;;;;5003431;28;20049;-35
2023/08/06 05:11:12;;;;;;;7.50;4.18;;;14.80;99.90;;;;;;5014757;28;20407;-35
2023/08/06 05:13:37;;;;;;;5.68;3.45;;;14.80;99.90;;;;;;5016544;28;20133;-35
2023/08/06 05:16:03;;;;;;;5.32;3.78;;;14.80;99.90;;;;;;5008102;28;20145;-36
2023/08/06 05:18:30;;;;;;;7.45;3.95;;;14.80;99.90;;;;;;5011222;28;20045;-36
2023/08/06 05:20:56;;;;;;;5.68;3.95;;;14.90;99.90;;;;;;5011751;28;20058;-36
2023/08/06 05:23:21;;;;;;;5.50;3.65;;;14.90;99.90;;;;;;5010670;28;20461;-36
2023/08/06 05:25:47;;;;;;;6.05;4.03;;;14.90;99.90;;;;;;5011269;28;20393;-36
2023/08/06 05:28:13;;;;;;;6.15;4.07;;;14.90;99.90;;;;;;5008152;28;20041;-35
2023/08/06 05:30:42;;;;;;;5.97;4.10;;;15.00;99.90;;;;;;5011148;28;20045;-36
2023/08/06 05:33:07;;;;;;;6.25;3.63;;;15.00;99.90;;;;;;5013040;28;20132;-35
2023/08/06 05:35:33;;;;;;;6.78;4.00;;;15.00;99.90;;;;;;5006097;28;20137;-35
2023/08/06 05:37:59;;;;;;;8.20;4.00;;;15.10;99.90;;;;;;4992878;28;20061;-35
2023/08/06 05:40:25;;;;;;;5.63;3.90;;;15.10;99.90;;;;;;5008760;28;20048;-35
2023/08/06 05:42:53;;;;;;;6.95;4.25;;;15.10;99.90;;;;;;5008146;28;20096;-35
2023/08/06 05:45:19;;;;;;;6.63;3.90;;;15.10;99.90;;;;;;5012990;28;20112;-35
2023/08/06 05:47:44;;;;;;;6.57;3.67;;;15.10;99.90;;;;;;5010267;28;20488;-35
2023/08/06 05:50:10;;;;;;;7.60;4.68;;;15.10;99.90;;;;;;5008627;28;20485;-35
2023/08/06 05:52:35;;;;;;;8.27;4.07;;;15.10;99.90;;;;;;5010028;28;20046;-35
2023/08/06 05:55:01;;;;;;;6.63;4.00;;;15.20;99.90;;;;;;5011281;28;20058;-35
2023/08/06 05:57:27;;;;;;;7.22;3.95;;;15.10;99.90;;;;;;5009633;28;20057;-35
2023/08/06 05:59:52;;;;;;;7.53;4.00;;;15.20;99.90;;;;;;5008259;28;20232;-35
2023/08/06 06:02:18;;;;;;;5.88;3.95;;;15.20;99.90;;;;;;5007947;28;20528;-35
2023/08/06 06:04:44;;;;;;;5.85;3.60;;;15.20;99.90;;;;;;5004898;28;20053;-35
2023/08/06 06:07:10;;;;;;;6.57;4.40;;;15.20;99.90;;;;;;5010051;28;20054;-35
2023/08/06 06:09:35;;;;;;;5.05;3.50;;;15.30;99.90;;;;;;5007349;28;20050;-35
2023/08/06 06:12:01;;;;;;;5.35;3.88;;;15.30;99.90;;;;;;5015020;28;20049;-35
2023/08/06 06:14:27;;;;;;;6.30;4.22;;;15.30;99.90;;;;;;5011912;28;20062;-35
2023/08/06 06:16:53;;;;;;;5.45;3.47;;;15.30;99.90;;;;;;5005611;28;20137;-35
2023/08/06 06:19:18;;;;;;;7.63;3.65;;;15.30;99.90;;;;;;5007514;28;20042;-35
2023/08/06 06:21:44;;;;;;;6.85;4.38;;;15.30;99.90;;;;;;5006808;28;20060;-35
2023/08/06 06:24:10;;;;;;;8.07;3.45;;;15.40;99.90;;;;;;5007748;28;20050;-35
2023/08/06 06:26:35;;;;;;;7.05;4.13;;;15.40;99.90;;;;;;5004574;28;20050;-35
2023/08/06 06:29:01;;;;;;;5.72;3.67;;;15.40;99.90;;;;;;5006355;28;20101;-35
2023/08/06 06:31:27;;;;;;;7.65;3.97;;;15.40;99.90;;;;;;5008310;28;20061;-35
2023/08/06 06:33:54;;;;;;;5.95;3.63;;;15.40;99.90;;;;;;5005110;28;20049;-35
2023/08/06 06:36:20;;;;;;;7.10;3.60;;;15.40;99.90;;;;;;5007876;28;20050;-35
2023/08/06 06:38:46;;;;;;;5.75;3.78;;;15.40;99.90;;;;;;5008470;28;20450;-35
2023/08/06 06:41:11;;;;;;;13.10;4.13;;;15.40;99.90;;;;;;5005004;28;20620;-35
2023/08/06 06:43:39;;;;;;;6.85;4.13;;;15.50;99.90;;;;;;5007654;28;20145;-35
2023/08/06 06:46:05;;;;;;;5.85;4.28;;;15.50;99.90;;;;;;5012768;28;20049;-35
2023/08/06 06:48:32;;;;;;;6.15;4.13;;;15.50;99.90;;;;;;5006657;28;20049;-35
2023/08/06 06:50:59;;;;;;;7.53;4.18;;;15.50;99.90;;;;;;5015141;28;20515;-35
2023/08/06 06:53:28;;;;;;;9.30;4.55;;;15.60;99.90;;;;;;5011664;28;20067;-35
2023/08/06 06:56:04;;;;;;;6.50;4.03;;;15.60;99.90;;;;;;5005776;28;20050;-35
2023/08/06 06:58:30;;;;;;;5.93;3.63;;;15.70;99.90;;;;;;5009416;28;20060;-35
2023/08/06 07:00:56;;;;;;;6.82;4.43;;;15.60;99.90;;;;;;5003291;28;20061;-35
2023/08/06 07:03:21;;;;;;;6.82;4.75;;;15.70;99.90;;;;;;5011935;28;20470;-35
2023/08/06 07:05:47;;;;;;;6.45;4.30;;;15.70;99.90;;;;;;5007121;28;20049;-35
2023/08/06 07:08:13;;;;;;;6.53;4.40;;;15.70;99.90;;;;;;5015407;28;20056;-35
2023/08/06 07:10:41;;;;;;;7.22;4.30;;;15.60;99.90;;;;;;4993421;28;20049;-35
2023/08/06 07:13:08;;;;;;;6.97;4.70;;;15.70;99.90;;;;;;5006891;28;20090;-35
2023/08/06 07:15:34;;;;;;;6.57;4.85;;;15.70;99.90;;;;;;5005646;28;20045;-35
2023/08/06 07:17:59;;;;;;;7.43;4.60;;;15.70;99.90;;;;;;5010091;28;20057;-35
2023/08/06 07:20:25;;;;;;;6.32;4.18;;;15.70;99.90;;;;;;5008205;28;20057;-35
2023/08/06 07:22:51;;;;;;;6.28;4.22;;;15.70;99.90;;;;;;5001978;28;20046;-35
2023/08/06 07:25:17;;;;;;;6.53;4.70;;;15.70;99.90;;;;;;5002716;28;20058;-35
2023/08/06 07:27:43;;;;;;;7.13;4.25;;;15.80;99.90;;;;;;4996925;28;20054;-35
2023/08/06 07:30:08;;;;;;;7.82;5.07;;;15.80;99.90;;;;;;5003783;28;20076;-35
2023/08/06 07:32:34;;;;;;;7.05;4.53;;;15.80;99.90;;;;;;4986469;28;20061;-35
2023/08/06 07:35:00;;;;;;;6.85;4.72;;;15.90;99.90;;;;;;5007211;28;20069;-35
2023/08/06 07:37:29;;;;;;;6.63;3.80;;;15.90;99.90;;;;;;5012417;28;20046;-35
2023/08/06 07:39:56;;;;;;;7.47;5.00;;;15.90;99.90;;;;;;5007971;28;20052;-36
2023/08/06 07:42:22;;;;;;;8.00;4.88;;;15.90;99.90;;;;;;5005641;28;20514;-35
2023/08/06 07:44:54;;;;;;;7.15;4.55;;;16.00;99.90;;;;;;5006952;28;20078;-35
2023/08/06 07:47:20;;;;;;;6.97;4.80;;;16.00;99.90;;;;;;5004799;28;20053;-35
2023/08/06 07:49:45;;;;;;;7.05;4.35;;;16.00;99.90;;;;;;5010189;28;20475;-35
2023/08/06 07:52:11;;;;;;;6.00;4.07;;;16.00;99.90;;;;;;4996981;28;20148;-35
2023/08/06 07:54:37;;;;;;;7.07;5.10;;;16.10;99.90;;;;;;4999497;28;20042;-35
2023/08/06 07:57:03;;;;;;;6.28;4.70;;;16.10;99.90;;;;;;5002709;28;20081;-35
2023/08/06 07:59:28;;;;;;;6.05;4.65;;;16.10;99.90;;;;;;5000947;28;20412;-35
2023/08/06 08:01:54;;;;;;;6.85;4.68;;;16.10;99.90;;;;;;5005190;28;20340;-35
2023/08/06 08:04:20;;;;;;;7.93;5.55;;;16.20;99.90;;;;;;5009899;28;20137;-35
2023/08/06 08:06:47;;;;;;;10.02;4.50;;;16.20;99.90;;;;;;5005157;28;20053;-36
2023/08/06 08:09:13;;;;;;;6.60;5.18;;;16.20;99.90;;;;;;5002061;28;20042;-36
2023/08/06 08:11:40;;;;;;;6.90;5.25;;;16.20;99.90;;;;;;5001346;28;20057;-36
2023/08/06 08:14:05;;;;;;;7.50;4.53;;;16.30;99.90;;;;;;5004895;28;20045;-36
2023/08/06 08:16:31;;;;;;;7.90;5.90;;;16.30;99.90;;;;;;5004616;28;20057;-36
2023/08/06 08:18:57;;;;;;;9.35;5.97;;;16.40;99.90;;;;;;4995630;28;20049;-36
2023/08/06 08:21:24;;;;;;;9.88;5.85;;;16.40;99.90;;;;;;5003086;28;20077;-36
2023/08/06 08:23:52;;;;;;;8.38;5.75;;;16.40;99.90;;;;;;5001919;28;20053;-36
2023/08/06 08:26:18;;;;;;;9.43;5.28;;;16.50;99.90;;;;;;5003679;28;20056;-36
2023/08/06 08:28:44;;;;;;;7.95;5.47;;;16.60;99.90;;;;;;5002317;28;20049;-36
2023/08/06 08:31:11;;;;;;;6.25;4.95;;;16.70;99.90;;;;;;5002901;28;20415;-36
2023/08/06 08:33:39;;;;;;;9.02;6.10;;;16.80;99.90;;;;;;4999547;28;20050;-37
2023/08/06 08:36:05;;;;;;;7.07;5.05;;;16.80;99.90;;;;;;5001897;28;20053;-36
2023/08/06 08:38:31;;;;;;;6.82;4.95;;;16.80;99.90;;;;;;5004680;28;20480;-36
2023/08/06 08:40:57;;;;;;;9.68;5.38;;;16.90;99.90;;;;;;5001979;28;20045;-36
2023/08/06 08:43:23;;;;;;;7.78;5.22;;;16.90;99.90;;;;;;5002122;28;20080;-36
2023/08/06 08:45:54;;;;;;;8.77;5.35;;;17.00;99.90;;;;;;5007486;28;20060;-36
2023/08/06 08:48:21;;;;;;;7.13;5.22;;;17.00;99.90;;;;;;5010559;28;20135;-36
2023/08/06 08:50:49;;;;;;;6.18;4.55;;;17.00;99.90;;;;;;5008501;28;20046;-36
2023/08/06 08:53:16;;;;;;;7.60;5.35;;;17.10;99.90;;;;;;5006592;28;20123;-36
2023/08/06 08:55:44;;;;;;;7.20;4.88;;;17.10;99.90;;;;;;5009335;28;20045;-37
2023/08/06 08:58:10;;;;;;;7.25;5.28;;;17.20;99.90;;;;;;5000548;28;20050;-36
2023/08/06 09:00:36;;;;;;;8.02;4.60;;;17.30;99.90;;;;;;5007543;28;20451;-37
2023/08/06 09:03:04;;;;;;;6.97;4.75;;;17.40;99.90;;;;;;5005541;28;20068;-37
2023/08/06 09:05:31;;;;;;;6.03;4.57;;;17.50;99.90;;;;;;4999526;28;20054;-36
2023/08/06 09:08:04;;;;;;;6.20;4.35;;;17.70;99.90;;;;;;5001772;28;20054;-36
2023/08/06 09:10:30;;;;;;;5.28;4.18;;;18.00;99.90;;;;;;5009398;28;20068;-36
2023/08/06 09:12:57;;;;;;;5.72;4.13;;;18.10;99.90;;;;;;4988181;28;20084;-36
2023/08/06 09:15:25;;;;;;;5.30;3.92;;;18.20;99.90;;;;;;4988914;28;20112;-35
2023/08/06 09:17:51;;;;;;;5.90;3.90;;;18.30;99.90;;;;;;5011663;28;20133;-35
2023/08/06 09:20:17;;;;;;;6.05;4.57;;;18.30;99.90;;;;;;5009197;28;20140;-35
2023/08/06 09:22:45;;;;;;;7.85;4.20;;;18.30;99.90;;;;;;5008424;28;20496;-35
2023/08/06 09:25:11;;;;;;;7.70;4.70;;;18.30;99.90;;;;;;4994861;28;20446;-35
2023/08/06 09:27:39;;;;;;;6.40;4.50;;;18.50;99.90;;;;;;4997904;28;20046;-35
2023/08/06 09:30:07;;;;;;;5.00;3.42;;;18.50;99.90;;;;;;5001974;28;20052;-35
2023/08/06 09:32:47;;;;;;;5.93;4.78;;;18.60;99.90;;;;;;5005065;28;20103;-35
2023/08/06 09:35:17;;;;;;;5.85;4.13;;;18.60;99.90;;;;;;5000654;28;20053;-35
2023/08/06 09:37:42;;;;;;;6.93;4.40;;;18.70;99.90;;;;;;5006041;28;20049;-35
2023/08/06 09:40:29;;;;;;;5.70;4.10;;;18.70;99.90;;;;;;5009871;28;20050;-34
2023/08/06 09:42:55;;;;;;;6.30;4.32;;;18.70;99.90;;;;;;5010049;28;20052;-35
2023/08/06 09:45:23;;;;;;;5.03;3.78;;;18.70;99.90;;;;;;5006878;28;20671;-34
2023/08/06 09:47:50;;;;;;;10.10;4.57;;;18.70;99.90;;;;;;5005610;28;20046;-35
2023/08/06 09:50:20;;;;;;;5.55;3.97;;;18.80;99.90;;;;;;5006105;28;20056;-35
2023/08/06 09:52:47;;;;;;;6.20;4.63;;;18.90;99.90;;;;;;5006760;28;21805;-35
2023/08/06 09:55:14;;;;;;;6.45;4.57;;;19.10;99.90;;;;;;5012218;28;20096;-35
2023/08/06 09:57:41;;;;;;;6.30;4.38;;;19.30;99.90;;;;;;5004635;28;20053;-35
2023/08/06 10:00:09;;;;;;;7.82;5.03;;;19.60;99.90;;;;;;5006885;28;20046;-35
2023/08/06 10:02:38;;;;;;;6.53;4.57;;;19.80;99.90;;;;;;4995939;28;20073;-35
2023/08/06 10:05:05;;;;;;;4.88;3.58;;;20.00;99.90;;;;;;5005488;28;20092;-35
2023/08/06 10:07:30;;;;;;;5.43;4.18;;;20.10;99.90;;;;;;5009643;28;20046;-35
2023/08/06 10:09:56;;;;;;;4.57;3.03;;;20.30;99.90;;;;;;5002923;28;20156;-36
2023/08/06 10:12:27;;;;;;;7.15;3.30;;;20.40;99.90;;;;;;5006055;28;20045;-35
2023/08/06 10:14:55;;;;;;;4.93;3.10;;;20.60;99.90;;;;;;5005360;28;20064;-35
2023/08/06 10:17:23;;;;;;;3.85;2.83;;;20.60;99.90;;;;;;5005963;28;20496;-35
2023/08/06 10:19:50;;;;;;;3.88;2.50;;;20.70;99.90;;;;;;5007045;28;20575;-36
2023/08/06 10:22:17;;;;;;;4.15;2.35;;;20.80;99.90;;;;;;5012506;28;20073;-35
2023/08/06 10:24:56;;;;;;;4.45;2.58;;;20.90;99.90;;;;;;5007979;28;20076;-35
2023/08/06 10:27:35;;;;;;;3.67;2.25;;;20.90;99.90;;;;;;5009554;28;20127;-35
2023/08/06 10:30:24;;;;;;;5.07;2.70;;;20.90;99.90;;;;;;5008430;28;20072;-35
2023/08/06 10:32:51;;;;;;;4.10;2.70;;;20.90;99.90;;;;;;5007756;28;20566;-35
2023/08/06 10:35:37;;;;;;;4.50;2.92;;;20.80;99.90;;;;;;5005915;28;20046;-35
2023/08/06 10:38:09;;;;;;;3.67;2.30;;;20.80;99.90;;;;;;5008498;28;20088;-36
2023/08/06 10:40:36;;;;;;;3.45;2.53;;;20.80;99.90;;;;;;4989197;28;20057;-35
2023/08/06 10:43:03;;;;;;;3.67;2.45;;;20.90;99.90;;;;;;5008769;28;20136;-35
2023/08/06 10:45:30;;;;;;;3.85;3.00;;;20.90;99.90;;;;;;4987205;28;20054;-36
2023/08/06 10:47:59;;;;;;;5.20;3.03;;;20.90;99.90;;;;;;5005360;28;20159;-35
2023/08/06 10:50:26;;;;;;;5.05;3.10;;;20.80;99.90;;;;;;5004023;28;20095;-35
2023/08/06 10:52:52;;;;;;;3.65;2.63;;;20.70;99.90;;;;;;5005426;28;20496;-36
2023/08/06 10:55:25;;;;;;;3.58;2.60;;;20.60;99.90;;;;;;5007272;28;20052;-35
2023/08/06 10:57:52;;;;;;;3.22;2.40;;;20.70;99.90;;;;;;4997259;28;20060;-35
2023/08/06 11:00:17;;;;;;;3.90;2.50;;;20.70;99.90;;;;;;5006274;28;20637;-35
2023/08/06 11:02:44;;;;;;;5.00;2.53;;;20.80;99.90;;;;;;5013937;28;21760;-35
2023/08/06 11:05:11;;;;;;;3.92;2.53;;;20.70;99.90;;;;;;5011085;28;20082;-36
2023/08/06 11:07:37;;;;;;;2.97;2.35;;;20.60;99.90;;;;;;5009988;28;20042;-36
2023/08/06 11:10:07;;;;;;;4.05;2.75;;;20.60;99.90;;;;;;5004836;28;20123;-36
2023/08/06 11:12:34;;;;;;;4.63;2.72;;;20.50;99.90;;;;;;5005068;28;20499;-35
2023/08/06 11:15:00;;;;;;;4.53;2.42;;;20.40;99.90;;;;;;5007226;28;20050;-35
2023/08/06 11:17:28;;;;;;;4.75;2.50;;;20.50;99.90;;;;;;5003960;28;20052;-35
2023/08/06 11:19:54;;;;;;;3.78;2.55;;;20.60;99.90;;;;;;5006469;28;20050;-35
2023/08/06 11:22:21;;;;;;;5.95;2.70;;;20.80;99.90;;;;;;5001223;28;20046;-35
2023/08/06 11:24:48;;;;;;;4.28;2.25;;;20.90;99.90;;;;;;4999791;28;20049;-35
2023/08/06 11:27:14;;;;;;;5.35;2.25;;;21.00;99.90;;;;;;5000908;28;20045;-35
2023/08/06 11:29:41;;;;;;;3.33;2.25;;;20.90;99.90;;;;;;5001908;28;20054;-35
2023/08/06 11:32:08;;;;;;;2.72;1.70;;;21.00;99.90;;;;;;5003939;28;20054;-35
2023/08/06 11:34:34;;;;;;;3.42;1.80;;;20.90;99.90;;;;;;5004276;28;20046;-36
2023/08/06 11:37:00;;;;;;;2.95;1.90;;;20.90;99.90;;;;;;5002221;28;20046;-36
2023/08/06 11:39:25;;;;;;;3.50;2.00;;;20.80;99.90;;;;;;5004565;28;20064;-35
2023/08/06 11:41:51;;;;;;;3.30;1.92;;;20.70;99.90;;;;;;5000077;28;20404;-35
2023/08/06 11:44:19;;;;;;;3.25;1.92;;;20.60;99.90;;;;;;5000482;28;20046;-36
2023/08/06 11:47:00;;;;;;;2.30;1.50;;;20.50;99.90;;;;;;4998967;28;20132;-36
2023/08/06 11:49:41;;;;;;;3.50;1.35;;;20.30;99.90;;;;;;5004880;28;20119;-36
2023/08/06 11:52:26;;;;;;;3.05;1.00;;;20.30;99.90;;;;;;4998850;28;20060;-36
2023/08/06 11:55:07;;;;;;;3.30;1.33;;;20.30;99.90;;;;;;5002728;28;20069;-36
2023/08/06 11:57:37;;;;;;;1.70;1.00;;;20.30;99.90;;;;;;4999620;28;20542;-36
2023/08/06 12:00:11;;;;;;;1.45;0.90;;;20.30;99.90;;;;;;5004750;28;20084;-36
2023/08/06 12:02:41;;;;;;;1.63;1.08;;;20.30;99.90;;;;;;5002350;28;20140;-36
2023/08/06 12:05:09;;;;;;;1.52;1.00;;;20.40;99.90;;;;;;5004428;28;20049;-35
2023/08/06 12:07:39;;;;;;;1.90;1.05;;;20.40;99.90;;;;;;5011008;28;20062;-36
2023/08/06 12:10:06;;;;;;;1.55;0.98;;;20.50;99.90;;;;;;4995964;28;20525;-35
2023/08/06 12:12:31;;;;;;;2.03;1.10;;;20.50;99.90;;;;;;5006555;28;20056;-35
2023/08/06 12:14:57;;;;;;;2.35;1.10;;;20.50;99.90;;;;;;5007498;28;21292;-35
2023/08/06 12:17:26;;;;;;;2.40;1.08;;;20.60;99.90;;;;;;5003034;28;20137;-35
2023/08/06 12:19:52;;;;;;;4.32;1.20;;;20.60;99.90;;;;;;5009916;28;20324;-36
2023/08/06 12:22:18;;;;;;;1.70;1.00;;;20.70;99.90;;;;;;5012545;28;20120;-35
2023/08/06 12:24:45;;;;;;;1.85;0.80;;;20.70;99.90;;;;;;5009646;28;20049;-35
2023/08/06 12:27:11;;;;;;;1.50;1.10;;;20.70;99.90;;;;;;5010979;28;20515;-35
2023/08/06 12:29:41;;;;;;;1.85;1.20;;;20.70;99.90;;;;;;5007103;28;20058;-35
2023/08/06 12:32:07;;;;;;;2.80;1.42;;;20.70;99.90;;;;;;5009766;28;20647;-36
2023/08/06 12:34:37;;;;;;;5.68;1.45;;;20.70;99.90;;;;;;5006196;28;20057;-35
2023/08/06 12:37:03;;;;;;;2.30;1.38;;;20.60;99.90;;;;;;5012183;28;20488;-35
2023/08/06 12:39:29;;;;;;;2.08;1.15;;;20.50;99.90;;;;;;5009194;28;20046;-35
2023/08/06 12:41:57;;;;;;;2.05;1.20;;;20.30;99.90;;;;;;5009216;28;20104;-35
2023/08/06 12:44:24;;;;;;;2.10;1.10;;;20.20;99.90;;;;;;5011415;28;20061;-35